createdAt,value
2022-09-21T00:02:43.807Z,16.25
2022-09-21T00:05:42.209Z,19.33
2022-09-21T00:08:41.424Z,20.70
2022-09-21T00:11:39.724Z,19.58
2022-09-21T00:14:38.617Z,20.85
2022-09-21T00:17:37.997Z,22.33
2022-09-21T00:20:36.782Z,16.55
2022-09-21T00:23:36.612Z,15.05
2022-09-21T00:26:35.777Z,20.23
2022-09-21T00:29:34.049Z,12.38
2022-09-21T00:32:34.156Z,19.13
2022-09-21T00:35:32.372Z,16.33
2022-09-21T00:38:31.316Z,19.67
2022-09-21T00:41:32.405Z,15.45
2022-09-21T00:44:34.063Z,23.33
2022-09-21T00:47:40.423Z,15.18
2022-09-21T00:50:44.549Z,13.60
2022-09-21T00:53:43.679Z,26.52
2022-09-21T00:56:44.688Z,17.90
2022-09-21T00:59:45.626Z,18.40
2022-09-21T01:02:45.245Z,21.55
2022-09-21T01:05:43.500Z,26.63
2022-09-21T01:08:43.555Z,23.38
2022-09-21T01:12:06.385Z,18.98
2022-09-21T01:15:36.420Z,23.08
2022-09-21T01:18:53.578Z,16.52
2022-09-21T01:22:23.007Z,20.23
2022-09-21T01:25:35.254Z,21.15
2022-09-21T01:28:58.564Z,23.35
2022-09-21T01:32:21.335Z,25.30
2022-09-21T01:35:29.501Z,47.25
2022-09-21T01:41:33.129Z,29.25
2022-09-21T01:44:33.739Z,20.42
2022-09-21T01:47:33.335Z,17.25
2022-09-21T01:50:38.357Z,18.25
2022-09-21T01:53:45.645Z,22.42
2022-09-21T01:56:52.234Z,19.52
2022-09-21T01:59:57.365Z,26.67
2022-09-21T02:03:06.108Z,16.88
2022-09-21T02:09:03.763Z,22.50
2022-09-21T02:12:02.957Z,24.65
2022-09-21T02:15:02.321Z,22.88
2022-09-21T02:18:28.520Z,20.27
2022-09-21T02:21:34.808Z,19.08
2022-09-21T02:24:56.439Z,24.27
2022-09-21T02:28:02.246Z,34.00
2022-09-21T02:31:10.193Z,31.80
2022-09-21T02:34:22.576Z,34.38
2022-09-21T02:37:32.310Z,25.55
2022-09-21T02:40:47.662Z,18.77
2022-09-21T02:43:52.368Z,13.60
2022-09-21T02:46:58.910Z,18.77
2022-09-21T02:50:03.838Z,23.90
2022-09-21T02:53:04.597Z,22.75
2022-09-21T02:56:07.740Z,30.65
2022-09-21T02:59:07.488Z,23.10
2022-09-21T03:02:07.634Z,20.63
2022-09-21T03:05:06.462Z,29.98
2022-09-21T03:08:07.308Z,20.77
2022-09-21T03:11:05.885Z,31.60
2022-09-21T03:14:09.043Z,26.88
2022-09-21T03:17:07.309Z,23.42
2022-09-21T03:20:06.512Z,21.40
2022-09-21T03:23:05.036Z,23.63
2022-09-21T03:26:03.888Z,33.30
2022-09-21T03:29:02.214Z,22.90
2022-09-21T03:32:01.071Z,21.08
2022-09-21T03:34:59.900Z,19.42
2022-09-21T03:38:00.033Z,23.33
2022-09-21T03:40:58.798Z,31.33
2022-09-21T03:43:57.733Z,26.35
2022-09-21T03:46:55.936Z,19.17
2022-09-21T03:49:54.926Z,26.20
2022-09-21T03:52:53.266Z,23.45
2022-09-21T03:55:52.157Z,30.10
2022-09-21T03:58:50.527Z,26.73
2022-09-21T04:01:50.348Z,30.02
2022-09-21T04:04:48.566Z,25.85
2022-09-21T04:07:47.560Z,30.65
2022-09-21T04:10:45.742Z,38.30
2022-09-21T04:13:44.709Z,21.92
2022-09-21T04:16:42.980Z,28.23
2022-09-21T04:19:41.727Z,37.00
2022-09-21T04:22:43.277Z,29.02
2022-09-21T04:25:42.512Z,23.98
2022-09-21T04:28:40.730Z,25.58
2022-09-21T04:31:39.927Z,40.55
2022-09-21T04:34:39.973Z,31.23
2022-09-21T04:37:39.086Z,20.55
2022-09-21T04:40:37.388Z,24.88
2022-09-21T04:43:36.238Z,19.63
2022-09-21T04:46:34.658Z,14.00
2022-09-21T04:49:33.506Z,25.15
2022-09-21T04:52:36.449Z,19.52
2022-09-21T04:55:37.979Z,23.60
2022-09-21T04:58:36.489Z,40.33
2022-09-21T05:01:35.455Z,30.45
2022-09-21T05:04:33.821Z,37.17
2022-09-21T05:07:32.741Z,23.00
2022-09-21T05:10:30.995Z,32.95
2022-09-21T05:13:29.776Z,29.10
2022-09-21T05:16:27.964Z,26.90
2022-09-21T05:19:26.763Z,19.10
2022-09-21T05:22:25.038Z,31.10
2022-09-21T05:25:23.788Z,17.63
2022-09-21T05:28:22.390Z,22.73
2022-09-21T05:31:40.649Z,20.33
2022-09-21T05:34:57.602Z,19.13
2022-09-21T05:41:09.995Z,25.45
2022-09-21T05:44:11.465Z,23.10
2022-09-21T05:47:27.581Z,19.60
2022-09-21T05:50:57.689Z,24.95
2022-09-21T05:54:26.489Z,26.52
2022-09-21T05:57:46.463Z,21.88
2022-09-21T06:01:15.310Z,23.85
2022-09-21T06:04:14.584Z,37.70
2022-09-21T06:07:12.781Z,27.13
2022-09-21T06:10:14.010Z,23.52
2022-09-21T06:13:12.340Z,26.65
2022-09-21T06:16:11.425Z,18.33
2022-09-21T06:19:14.127Z,23.55
2022-09-21T06:22:12.879Z,35.28
2022-09-21T06:25:11.220Z,21.92
2022-09-21T06:28:12.978Z,20.10
2022-09-21T06:31:11.435Z,21.45
2022-09-21T06:34:10.607Z,31.48
2022-09-21T06:37:08.976Z,27.08
2022-09-21T06:40:08.499Z,26.50
2022-09-21T06:43:06.922Z,22.10
2022-09-21T06:46:06.102Z,24.17
2022-09-21T06:49:04.307Z,27.77
2022-09-21T06:52:04.913Z,30.88
2022-09-21T06:55:03.940Z,16.83
2022-09-21T06:58:04.598Z,24.17
2022-09-21T07:01:09.834Z,21.55
2022-09-21T07:04:09.887Z,22.73
2022-09-21T07:07:08.090Z,27.42
2022-09-21T07:10:14.545Z,21.92
2022-09-21T07:13:16.710Z,23.55
2022-09-21T07:16:15.651Z,24.33
2022-09-21T07:19:14.108Z,38.80
2022-09-21T07:22:13.048Z,30.00
2022-09-21T07:25:11.294Z,28.80
2022-09-21T07:28:10.224Z,29.17
2022-09-21T07:31:10.554Z,33.65
2022-09-21T07:34:09.355Z,44.63
2022-09-21T07:37:07.562Z,35.95
2022-09-21T07:40:06.977Z,34.63
2022-09-21T07:43:05.460Z,31.45
2022-09-21T07:46:04.260Z,32.97
2022-09-21T07:49:02.673Z,33.83
2022-09-21T07:52:04.983Z,31.95
2022-09-21T07:55:06.371Z,37.17
2022-09-21T07:58:20.539Z,23.15
2022-09-21T08:01:19.238Z,36.92
2022-09-21T08:04:18.437Z,29.05
2022-09-21T08:07:16.722Z,33.45
2022-09-21T08:10:15.675Z,31.73
2022-09-21T08:13:13.888Z,28.80
2022-09-21T08:16:12.945Z,33.38
2022-09-21T08:19:11.219Z,36.65
2022-09-21T08:22:10.101Z,38.97
2022-09-21T08:25:08.641Z,27.13
2022-09-21T08:28:10.030Z,48.83
2022-09-21T08:31:10.297Z,32.55
2022-09-21T08:34:09.471Z,36.15
2022-09-21T08:37:07.761Z,40.50
2022-09-21T08:40:08.175Z,42.15
2022-09-21T08:43:14.588Z,45.47
2022-09-21T08:46:18.370Z,32.88
2022-09-21T08:49:25.829Z,39.55
2022-09-21T08:52:27.175Z,37.28
2022-09-21T08:55:25.471Z,34.70
2022-09-21T08:58:28.436Z,38.20
2022-09-21T09:01:38.811Z,29.17
2022-09-21T09:05:08.442Z,29.98
2022-09-21T09:08:28.750Z,30.70
2022-09-21T09:11:44.349Z,33.33
2022-09-21T09:15:13.068Z,34.50
2022-09-21T09:18:34.054Z,33.72
2022-09-21T09:21:38.816Z,32.13
2022-09-21T09:24:51.263Z,42.88
2022-09-21T09:27:56.521Z,27.95
2022-09-21T09:31:01.073Z,32.30
2022-09-21T09:34:10.790Z,29.77
2022-09-21T09:37:15.823Z,32.60
2022-09-21T09:40:17.705Z,41.58
2022-09-21T09:43:34.766Z,30.10
2022-09-21T09:46:52.878Z,28.73
2022-09-21T09:50:09.936Z,30.20
2022-09-21T09:53:20.889Z,32.92
2022-09-21T09:56:19.737Z,43.47
2022-09-21T09:59:44.729Z,35.72
2022-09-21T10:02:50.093Z,40.17
2022-09-21T10:05:48.808Z,38.35
2022-09-21T10:08:47.877Z,41.85
2022-09-21T10:11:47.072Z,29.75
2022-09-21T10:14:52.603Z,26.05
2022-09-21T10:18:08.527Z,32.58
2022-09-21T10:21:10.771Z,25.47
2022-09-21T10:24:21.820Z,44.35
2022-09-21T10:27:30.350Z,27.85
2022-09-21T10:30:35.779Z,29.33
2022-09-21T10:33:35.956Z,34.47
2022-09-21T10:36:37.097Z,31.30
2022-09-21T10:39:35.977Z,42.13
2022-09-21T10:42:42.355Z,30.98
2022-09-21T10:45:56.294Z,37.15
2022-09-21T10:48:54.679Z,38.90
2022-09-21T10:51:57.787Z,27.23
2022-09-21T10:54:57.307Z,28.75
2022-09-21T10:57:57.098Z,34.85
2022-09-21T11:00:56.849Z,27.48
2022-09-21T11:04:03.780Z,30.58
2022-09-21T11:07:16.616Z,31.98
2022-09-21T11:10:34.294Z,32.88
2022-09-21T11:13:46.609Z,25.20
2022-09-21T11:17:01.745Z,37.47
2022-09-21T11:20:21.212Z,30.25
2022-09-21T11:23:44.540Z,24.73
2022-09-21T11:26:50.294Z,33.45
2022-09-21T11:30:10.850Z,41.03
2022-09-21T11:33:33.528Z,33.75
2022-09-21T11:37:11.442Z,37.58
2022-09-21T11:40:40.635Z,28.00
2022-09-21T11:44:02.912Z,38.70
2022-09-21T11:47:25.688Z,34.10
2022-09-21T11:50:41.108Z,30.98
2022-09-21T11:54:10.290Z,34.50
2022-09-21T11:57:34.606Z,39.20
2022-09-21T12:00:51.741Z,26.13
2022-09-21T12:04:25.528Z,30.00
2022-09-21T12:07:51.476Z,36.03
2022-09-21T12:11:15.193Z,41.13
2022-09-21T12:15:05.134Z,45.90
2022-09-21T12:18:23.115Z,44.30
2022-09-21T12:21:47.971Z,20.88
2022-09-21T12:24:52.172Z,29.17
2022-09-21T12:27:55.137Z,29.77
2022-09-21T12:31:10.124Z,28.30
2022-09-21T12:34:26.761Z,25.63
2022-09-21T12:37:34.557Z,25.20
2022-09-21T12:40:54.803Z,22.60
2022-09-21T12:44:06.174Z,24.38
2022-09-21T12:47:11.868Z,24.80
2022-09-21T12:50:40.150Z,21.42
2022-09-21T12:53:42.254Z,28.38
2022-09-21T12:57:17.512Z,24.60
2022-09-21T13:00:24.626Z,27.67
2022-09-21T13:03:35.479Z,21.92
2022-09-21T13:06:57.312Z,19.48
2022-09-21T13:10:10.540Z,12.73
2022-09-21T13:13:23.819Z,14.45
2022-09-21T13:16:31.590Z,12.73
2022-09-21T13:19:33.059Z,20.25
2022-09-21T13:22:34.589Z,13.63
2022-09-21T13:25:38.125Z,19.10
2022-09-21T13:29:04.155Z,11.18
2022-09-21T13:32:05.038Z,22.90
2022-09-21T13:35:38.977Z,16.08
2022-09-21T13:38:57.966Z,26.55
2022-09-21T13:42:03.278Z,24.83
2022-09-21T13:45:25.103Z,21.52
2022-09-21T13:48:32.125Z,14.85
2022-09-21T13:51:34.037Z,19.50
2022-09-21T13:54:51.700Z,18.58
2022-09-21T13:57:52.688Z,15.88
2022-09-21T14:01:03.671Z,23.90
2022-09-21T14:04:17.574Z,19.08
2022-09-21T14:07:16.403Z,18.63
2022-09-21T14:10:21.142Z,19.40
2022-09-21T14:13:40.019Z,16.83
2022-09-21T14:16:57.073Z,17.67
2022-09-21T14:20:01.024Z,17.25
2022-09-21T14:23:28.271Z,21.38
2022-09-21T14:26:48.402Z,14.30
2022-09-21T14:29:53.794Z,16.77
2022-09-21T14:33:12.913Z,10.85
2022-09-21T14:36:22.642Z,11.70
2022-09-21T14:39:25.633Z,16.35
2022-09-21T14:42:29.504Z,12.65
2022-09-21T14:45:50.926Z,12.43
2022-09-21T14:49:25.441Z,12.68
2022-09-21T14:52:43.894Z,12.40
2022-09-21T14:56:10.561Z,16.77
2022-09-21T15:00:04.508Z,15.45
2022-09-21T15:03:39.470Z,12.45
2022-09-21T15:07:01.380Z,9.70
2022-09-21T15:10:34.502Z,10.55
2022-09-21T15:13:56.756Z,11.85
2022-09-21T15:16:54.898Z,14.88
2022-09-21T15:20:00.708Z,7.45
2022-09-21T15:23:00.862Z,18.75
2022-09-21T15:26:04.411Z,10.88
2022-09-21T15:29:10.210Z,10.65
2022-09-21T15:32:09.561Z,13.27
2022-09-21T15:35:22.431Z,10.70
2022-09-21T15:38:37.104Z,11.68
2022-09-21T15:41:43.467Z,15.85
2022-09-21T15:44:45.673Z,11.43
2022-09-21T15:47:45.359Z,9.63
2022-09-21T15:50:46.217Z,10.07
2022-09-21T15:53:48.993Z,15.48
2022-09-21T15:56:48.021Z,7.90
2022-09-21T15:59:47.776Z,17.70
2022-09-21T16:03:05.155Z,14.48
2022-09-21T16:06:24.768Z,8.27
2022-09-21T16:09:37.421Z,13.15
2022-09-21T16:12:47.589Z,13.63
2022-09-21T16:16:02.066Z,9.90
2022-09-21T16:19:00.663Z,8.73
2022-09-21T16:22:05.739Z,17.40
2022-09-21T16:25:22.514Z,12.80
2022-09-21T16:28:36.110Z,12.63
2022-09-21T16:31:36.573Z,13.60
2022-09-21T16:34:37.381Z,11.77
2022-09-21T16:37:36.784Z,8.05
2022-09-21T16:40:35.708Z,15.32
2022-09-21T16:43:34.561Z,10.65
2022-09-21T16:46:33.385Z,15.10
2022-09-21T16:49:35.433Z,9.95
2022-09-21T16:52:34.100Z,6.05
2022-09-21T16:55:33.364Z,10.45
2022-09-21T16:58:32.289Z,16.58
2022-09-21T17:01:30.634Z,10.93
2022-09-21T17:04:31.634Z,9.18
2022-09-21T17:07:29.732Z,9.52
2022-09-21T17:10:34.916Z,20.83
2022-09-21T17:13:33.892Z,16.52
2022-09-21T17:16:55.004Z,9.77
2022-09-21T17:19:54.412Z,8.85
2022-09-21T17:22:59.323Z,19.65
2022-09-21T17:26:06.403Z,7.10
2022-09-21T17:32:11.731Z,15.15
2022-09-21T17:35:32.602Z,7.55
2022-09-21T17:38:38.554Z,9.20
2022-09-21T17:41:58.692Z,15.52
2022-09-21T17:45:13.133Z,14.48
2022-09-21T17:48:18.908Z,9.32
2022-09-21T17:51:37.412Z,12.38
2022-09-21T17:54:40.459Z,18.27
2022-09-21T17:58:01.634Z,10.27
2022-09-21T18:01:14.797Z,17.45
2022-09-21T18:04:13.343Z,17.95
2022-09-21T18:07:12.945Z,13.45
2022-09-21T18:10:14.639Z,11.32
2022-09-21T18:13:32.337Z,9.02
2022-09-21T18:16:45.763Z,11.82
2022-09-21T18:20:05.676Z,12.38
2022-09-21T18:23:33.476Z,16.90
2022-09-21T18:26:33.703Z,11.20
2022-09-21T18:29:41.750Z,12.20
2022-09-21T18:32:57.969Z,12.55
2022-09-21T18:36:20.409Z,14.55
2022-09-21T18:39:29.990Z,8.70
2022-09-21T18:42:51.148Z,11.55
2022-09-21T18:46:05.343Z,9.98
2022-09-21T18:49:23.608Z,8.90
2022-09-21T18:52:50.020Z,7.88
2022-09-21T18:55:49.065Z,9.18
2022-09-21T18:59:03.061Z,12.63
2022-09-21T19:02:01.765Z,12.38
2022-09-21T19:05:03.539Z,16.40
2022-09-21T19:08:12.060Z,12.48
2022-09-21T19:11:25.522Z,9.38
2022-09-21T19:14:45.013Z,11.23
2022-09-21T19:18:06.653Z,13.93
2022-09-21T19:21:36.985Z,20.13
2022-09-21T19:24:58.906Z,12.10
2022-09-21T19:28:02.648Z,16.60
2022-09-21T19:31:19.690Z,6.28
2022-09-21T19:34:19.725Z,9.10
2022-09-21T19:37:18.514Z,11.18
2022-09-21T19:40:19.800Z,14.82
2022-09-21T19:43:43.874Z,9.55
2022-09-21T19:47:08.706Z,16.55
2022-09-21T19:50:24.672Z,12.32
2022-09-21T19:53:38.812Z,14.07
2022-09-21T19:57:05.183Z,15.00
2022-09-21T20:00:06.034Z,10.18
2022-09-21T20:03:15.877Z,12.32
2022-09-21T20:06:26.365Z,13.32
2022-09-21T20:09:29.843Z,14.40
2022-09-21T20:12:38.934Z,10.20
2022-09-21T20:15:48.779Z,11.27
2022-09-21T20:19:07.260Z,13.20
2022-09-21T20:22:16.235Z,10.40
2022-09-21T20:25:39.000Z,9.50
2022-09-21T20:28:37.846Z,16.92
2022-09-21T20:31:35.989Z,11.35
2022-09-21T20:34:34.815Z,10.18
2022-09-21T20:37:32.940Z,12.35
2022-09-21T20:40:32.759Z,12.40
2022-09-21T20:43:35.369Z,9.75
2022-09-21T20:46:34.366Z,14.98
2022-09-21T20:49:32.462Z,11.68
2022-09-21T20:52:31.466Z,12.15
2022-09-21T20:55:29.553Z,15.68
2022-09-21T20:58:29.047Z,14.50
2022-09-21T21:01:27.492Z,10.73
2022-09-21T21:04:26.258Z,10.73
2022-09-21T21:07:29.682Z,12.40
2022-09-21T21:10:29.287Z,10.32
2022-09-21T21:13:30.663Z,17.08
2022-09-21T21:16:29.400Z,10.07
2022-09-21T21:19:27.764Z,6.85
2022-09-21T21:22:26.381Z,11.70
2022-09-21T21:25:24.543Z,8.93
2022-09-21T21:28:23.207Z,14.25
2022-09-21T21:31:21.646Z,13.52
2022-09-21T21:34:20.488Z,10.95
2022-09-21T21:37:20.128Z,15.68
2022-09-21T21:40:19.285Z,9.50
2022-09-21T21:43:17.456Z,12.10
2022-09-21T21:46:16.264Z,7.28
2022-09-21T21:49:14.814Z,15.98
2022-09-21T21:52:13.790Z,14.88
2022-09-21T21:55:12.350Z,17.70
2022-09-21T21:58:11.691Z,14.40
2022-09-21T22:01:15.595Z,9.00
2022-09-21T22:04:14.586Z,7.00
2022-09-21T22:07:12.714Z,12.70
2022-09-21T22:10:11.352Z,14.05
2022-09-21T22:13:09.613Z,12.60
2022-09-21T22:16:14.922Z,13.70
2022-09-21T22:19:13.054Z,16.00
2022-09-21T22:22:11.636Z,15.55
2022-09-21T22:25:10.049Z,9.95
2022-09-21T22:28:08.739Z,12.63
2022-09-21T22:31:12.922Z,11.35
2022-09-21T22:34:13.182Z,12.02
2022-09-21T22:37:11.518Z,10.30
2022-09-21T22:40:10.856Z,10.65
2022-09-21T22:43:08.975Z,14.75
2022-09-21T22:46:08.353Z,9.68
2022-09-21T22:49:06.771Z,9.57
2022-09-21T22:52:05.547Z,11.65
2022-09-21T22:55:03.790Z,18.30
2022-09-21T22:58:02.502Z,7.50
2022-09-21T23:01:07.388Z,12.90
2022-09-21T23:04:09.073Z,12.38
2022-09-21T23:07:07.315Z,15.90
2022-09-21T23:10:06.421Z,15.93
2022-09-21T23:13:05.080Z,11.43
2022-09-21T23:16:06.414Z,8.13
2022-09-21T23:19:04.896Z,11.75
2022-09-21T23:22:03.996Z,12.48
2022-09-21T23:25:02.140Z,11.85
2022-09-21T23:28:01.286Z,11.45
2022-09-21T23:31:00.820Z,10.88
2022-09-21T23:34:05.873Z,9.02
2022-09-21T23:37:04.041Z,14.52
2022-09-21T23:40:03.246Z,6.00
2022-09-21T23:43:01.378Z,8.93
2022-09-21T23:46:00.408Z,7.75
2022-09-21T23:48:59.270Z,8.75
2022-09-21T23:51:57.938Z,12.57
2022-09-21T23:54:56.045Z,10.73
2022-09-21T23:57:54.670Z,9.13
